sensor_id;sensor_type;location;lat;lon;timestamp;P1;durP1;ratioP1;P2;durP2;ratioP2
9248;SDS011;4660;41.768;26.198;2023-05-10T00:00:20;6.10;;;4.50;;
9248;SDS011;4660;41.768;26.198;2023-05-10T00:02:47;6.50;;;4.53;;
9248;SDS011;4660;41.768;26.198;2023-05-10T00:05:13;6.33;;;4.57;;
9248;SDS011;4660;41.768;26.198;2023-05-10T00:07:39;7.23;;;5.00;;
9248;SDS011;4660;41.768;26.198;2023-05-10T00:10:04;7.17;;;4.97;;
9248;SDS011;4660;41.768;26.198;2023-05-10T00:12:30;6.30;;;4.47;;
9248;SDS011;4660;41.768;26.198;2023-05-10T00:14:56;11.57;;;5.77;;
9248;SDS011;4660;41.768;26.198;2023-05-10T00:17:21;5.33;;;4.60;;
9248;SDS011;4660;41.768;26.198;2023-05-10T00:19:47;7.20;;;4.90;;
9248;SDS011;4660;41.768;26.198;2023-05-10T00:22:13;6.53;;;4.93;;
9248;SDS011;4660;41.768;26.198;2023-05-10T00:24:39;6.13;;;4.93;;
9248;SDS011;4660;41.768;26.198;2023-05-10T00:27:04;9.50;;;5.23;;
9248;SDS011;4660;41.768;26.198;2023-05-10T00:29:30;7.50;;;5.20;;
9248;SDS011;4660;41.768;26.198;2023-05-10T00:31:56;6.73;;;5.20;;
9248;SDS011;4660;41.768;26.198;2023-05-10T00:34:22;8.80;;;6.03;;
9248;SDS011;4660;41.768;26.198;2023-05-10T00:36:47;5.90;;;5.30;;
9248;SDS011;4660;41.768;26.198;2023-05-10T00:39:13;8.07;;;5.50;;
9248;SDS011;4660;41.768;26.198;2023-05-10T00:41:39;7.13;;;5.50;;
9248;SDS011;4660;41.768;26.198;2023-05-10T00:44:05;8.07;;;5.43;;
9248;SDS011;4660;41.768;26.198;2023-05-10T00:46:30;7.07;;;5.33;;
9248;SDS011;4660;41.768;26.198;2023-05-10T00:48:56;6.30;;;5.40;;
9248;SDS011;4660;41.768;26.198;2023-05-10T00:51:22;7.90;;;5.63;;
9248;SDS011;4660;41.768;26.198;2023-05-10T00:53:48;9.70;;;5.90;;
9248;SDS011;4660;41.768;26.198;2023-05-10T00:56:14;7.30;;;5.30;;
9248;SDS011;4660;41.768;26.198;2023-05-10T00:58:40;8.83;;;5.50;;
9248;SDS011;4660;41.768;26.198;2023-05-10T01:01:07;6.40;;;5.30;;
9248;SDS011;4660;41.768;26.198;2023-05-10T01:03:34;6.67;;;5.57;;
9248;SDS011;4660;41.768;26.198;2023-05-10T01:06:01;8.63;;;5.20;;
9248;SDS011;4660;41.768;26.198;2023-05-10T01:08:27;6.87;;;5.00;;
9248;SDS011;4660;41.768;26.198;2023-05-10T01:10:53;6.77;;;5.40;;
9248;SDS011;4660;41.768;26.198;2023-05-10T01:13:35;8.23;;;5.30;;
9248;SDS011;4660;41.768;26.198;2023-05-10T01:16:04;10.37;;;6.67;;
9248;SDS011;4660;41.768;26.198;2023-05-10T01:18:35;6.40;;;5.57;;
9248;SDS011;4660;41.768;26.198;2023-05-10T01:29:23;8.77;;;5.60;;
9248;SDS011;4660;41.768;26.198;2023-05-10T01:37:43;5.53;;;5.00;;
9248;SDS011;4660;41.768;26.198;2023-05-10T01:43:01;9.43;;;5.50;;
9248;SDS011;4660;41.768;26.198;2023-05-10T01:45:50;9.20;;;5.83;;
9248;SDS011;4660;41.768;26.198;2023-05-10T01:48:37;8.80;;;5.43;;
9248;SDS011;4660;41.768;26.198;2023-05-10T01:51:11;7.57;;;5.67;;
9248;SDS011;4660;41.768;26.198;2023-05-10T01:53:40;9.60;;;5.90;;
9248;SDS011;4660;41.768;26.198;2023-05-10T01:56:08;9.83;;;5.50;;
9248;SDS011;4660;41.768;26.198;2023-05-10T01:58:36;6.00;;;4.97;;
9248;SDS011;4660;41.768;26.198;2023-05-10T02:01:05;10.20;;;5.37;;
9248;SDS011;4660;41.768;26.198;2023-05-10T02:03:32;7.73;;;5.40;;
9248;SDS011;4660;41.768;26.198;2023-05-10T02:06:00;8.30;;;5.30;;
9248;SDS011;4660;41.768;26.198;2023-05-10T02:08:27;7.47;;;5.23;;
9248;SDS011;4660;41.768;26.198;2023-05-10T02:10:54;6.20;;;5.00;;
9248;SDS011;4660;41.768;26.198;2023-05-10T02:13:21;7.33;;;5.23;;
9248;SDS011;4660;41.768;26.198;2023-05-10T02:15:49;10.30;;;5.73;;
9248;SDS011;4660;41.768;26.198;2023-05-10T02:18:16;7.77;;;5.03;;
9248;SDS011;4660;41.768;26.198;2023-05-10T02:20:44;5.53;;;5.03;;
9248;SDS011;4660;41.768;26.198;2023-05-10T02:23:11;8.67;;;5.30;;
9248;SDS011;4660;41.768;26.198;2023-05-10T02:25:38;8.47;;;4.47;;
9248;SDS011;4660;41.768;26.198;2023-05-10T02:28:05;7.57;;;5.23;;
9248;SDS011;4660;41.768;26.198;2023-05-10T02:30:32;5.50;;;4.87;;
9248;SDS011;4660;41.768;26.198;2023-05-10T02:32:59;13.07;;;6.17;;
9248;SDS011;4660;41.768;26.198;2023-05-10T02:35:28;9.20;;;4.73;;
9248;SDS011;4660;41.768;26.198;2023-05-10T02:37:54;7.13;;;5.07;;
9248;SDS011;4660;41.768;26.198;2023-05-10T02:40:20;7.10;;;5.00;;
9248;SDS011;4660;41.768;26.198;2023-05-10T02:42:47;13.57;;;5.40;;
9248;SDS011;4660;41.768;26.198;2023-05-10T02:45:17;7.43;;;5.13;;
9248;SDS011;4660;41.768;26.198;2023-05-10T02:47:45;6.83;;;5.93;;
9248;SDS011;4660;41.768;26.198;2023-05-10T02:50:11;22.37;;;6.10;;
9248;SDS011;4660;41.768;26.198;2023-05-10T02:52:44;7.30;;;4.93;;
9248;SDS011;4660;41.768;26.198;2023-05-10T02:55:14;5.67;;;4.47;;
9248;SDS011;4660;41.768;26.198;2023-05-10T02:57:57;10.47;;;5.53;;
9248;SDS011;4660;41.768;26.198;2023-05-10T03:00:25;7.03;;;4.93;;
9248;SDS011;4660;41.768;26.198;2023-05-10T03:02:50;11.27;;;5.20;;
9248;SDS011;4660;41.768;26.198;2023-05-10T03:05:16;6.73;;;5.03;;
9248;SDS011;4660;41.768;26.198;2023-05-10T03:07:42;7.93;;;4.70;;
9248;SDS011;4660;41.768;26.198;2023-05-10T03:10:08;8.70;;;4.33;;
9248;SDS011;4660;41.768;26.198;2023-05-10T03:12:51;6.20;;;4.93;;
9248;SDS011;4660;41.768;26.198;2023-05-10T03:18:09;9.40;;;5.67;;
9248;SDS011;4660;41.768;26.198;2023-05-10T03:20:44;9.00;;;4.90;;
9248;SDS011;4660;41.768;26.198;2023-05-10T03:23:18;7.47;;;5.07;;
9248;SDS011;4660;41.768;26.198;2023-05-10T03:25:48;10.23;;;5.00;;
9248;SDS011;4660;41.768;26.198;2023-05-10T03:28:16;9.17;;;4.83;;
9248;SDS011;4660;41.768;26.198;2023-05-10T03:30:42;4.93;;;4.20;;
9248;SDS011;4660;41.768;26.198;2023-05-10T03:33:09;6.43;;;4.70;;
9248;SDS011;4660;41.768;26.198;2023-05-10T03:35:35;10.33;;;4.63;;
9248;SDS011;4660;41.768;26.198;2023-05-10T03:38:01;8.07;;;4.83;;
9248;SDS011;4660;41.768;26.198;2023-05-10T03:40:27;9.67;;;4.50;;
9248;SDS011;4660;41.768;26.198;2023-05-10T03:43:00;6.53;;;4.53;;
9248;SDS011;4660;41.768;26.198;2023-05-10T03:45:26;8.13;;;4.50;;
9248;SDS011;4660;41.768;26.198;2023-05-10T03:47:52;9.63;;;5.30;;
9248;SDS011;4660;41.768;26.198;2023-05-10T03:50:17;7.93;;;4.67;;
9248;SDS011;4660;41.768;26.198;2023-05-10T03:52:43;8.17;;;4.77;;
9248;SDS011;4660;41.768;26.198;2023-05-10T03:55:09;7.87;;;4.93;;
9248;SDS011;4660;41.768;26.198;2023-05-10T03:57:35;7.57;;;5.00;;
9248;SDS011;4660;41.768;26.198;2023-05-10T04:00:01;7.67;;;5.07;;
9248;SDS011;4660;41.768;26.198;2023-05-10T04:02:26;7.60;;;5.20;;
9248;SDS011;4660;41.768;26.198;2023-05-10T04:04:52;9.90;;;4.87;;
9248;SDS011;4660;41.768;26.198;2023-05-10T04:07:18;6.20;;;4.93;;
9248;SDS011;4660;41.768;26.198;2023-05-10T04:09:45;7.67;;;5.70;;
9248;SDS011;4660;41.768;26.198;2023-05-10T04:12:13;6.63;;;4.97;;
9248;SDS011;4660;41.768;26.198;2023-05-10T04:14:39;5.70;;;4.83;;
9248;SDS011;4660;41.768;26.198;2023-05-10T04:17:05;8.33;;;4.50;;
9248;SDS011;4660;41.768;26.198;2023-05-10T04:19:32;8.30;;;5.00;;
9248;SDS011;4660;41.768;26.198;2023-05-10T04:21:59;6.07;;;4.20;;
9248;SDS011;4660;41.768;26.198;2023-05-10T04:24:32;4.33;;;3.87;;
9248;SDS011;4660;41.768;26.198;2023-05-10T04:27:19;6.73;;;4.20;;
9248;SDS011;4660;41.768;26.198;2023-05-10T04:29:45;6.23;;;3.77;;
9248;SDS011;4660;41.768;26.198;2023-05-10T04:32:13;4.77;;;3.57;;
9248;SDS011;4660;41.768;26.198;2023-05-10T04:34:45;4.60;;;4.07;;
9248;SDS011;4660;41.768;26.198;2023-05-10T04:37:13;4.87;;;4.00;;
9248;SDS011;4660;41.768;26.198;2023-05-10T04:39:40;7.23;;;3.93;;
9248;SDS011;4660;41.768;26.198;2023-05-10T04:42:19;6.80;;;4.20;;
9248;SDS011;4660;41.768;26.198;2023-05-10T04:44:48;6.57;;;4.87;;
9248;SDS011;4660;41.768;26.198;2023-05-10T04:47:17;7.67;;;4.93;;
9248;SDS011;4660;41.768;26.198;2023-05-10T04:49:49;12.77;;;5.33;;
9248;SDS011;4660;41.768;26.198;2023-05-10T04:52:36;7.73;;;5.43;;
9248;SDS011;4660;41.768;26.198;2023-05-10T05:00:20;8.57;;;4.40;;
9248;SDS011;4660;41.768;26.198;2023-05-10T05:11:54;6.00;;;2.73;;
9248;SDS011;4660;41.768;26.198;2023-05-10T05:17:03;2.50;;;2.30;;
9248;SDS011;4660;41.768;26.198;2023-05-10T05:19:57;2.97;;;2.43;;
9248;SDS011;4660;41.768;26.198;2023-05-10T05:23:14;4.23;;;2.40;;
9248;SDS011;4660;41.768;26.198;2023-05-10T05:26:16;7.73;;;3.00;;
9248;SDS011;4660;41.768;26.198;2023-05-10T05:29:08;3.73;;;2.70;;
9248;SDS011;4660;41.768;26.198;2023-05-10T05:31:40;3.10;;;2.30;;
9248;SDS011;4660;41.768;26.198;2023-05-10T05:34:08;3.23;;;2.77;;
9248;SDS011;4660;41.768;26.198;2023-05-10T05:36:42;3.50;;;2.40;;
9248;SDS011;4660;41.768;26.198;2023-05-10T05:39:15;5.03;;;2.73;;
9248;SDS011;4660;41.768;26.198;2023-05-10T05:41:43;4.73;;;2.67;;
9248;SDS011;4660;41.768;26.198;2023-05-10T05:44:09;5.63;;;2.83;;
9248;SDS011;4660;41.768;26.198;2023-05-10T05:46:49;3.00;;;2.50;;
9248;SDS011;4660;41.768;26.198;2023-05-10T05:49:15;2.90;;;2.20;;
9248;SDS011;4660;41.768;26.198;2023-05-10T05:51:43;5.63;;;2.53;;
9248;SDS011;4660;41.768;26.198;2023-05-10T05:54:17;3.67;;;2.40;;
9248;SDS011;4660;41.768;26.198;2023-05-10T05:56:49;2.60;;;2.40;;
9248;SDS011;4660;41.768;26.198;2023-05-10T05:59:21;5.63;;;2.97;;
9248;SDS011;4660;41.768;26.198;2023-05-10T06:01:48;2.07;;;1.93;;
9248;SDS011;4660;41.768;26.198;2023-05-10T06:04:18;5.47;;;2.80;;
9248;SDS011;4660;41.768;26.198;2023-05-10T06:06:55;5.43;;;2.27;;
9248;SDS011;4660;41.768;26.198;2023-05-10T06:09:27;3.70;;;1.87;;
9248;SDS011;4660;41.768;26.198;2023-05-10T06:12:26;6.20;;;2.13;;
9248;SDS011;4660;41.768;26.198;2023-05-10T06:23:16;3.17;;;2.57;;
9248;SDS011;4660;41.768;26.198;2023-05-10T06:26:02;2.87;;;2.27;;
9248;SDS011;4660;41.768;26.198;2023-05-10T06:28:28;4.20;;;2.63;;
9248;SDS011;4660;41.768;26.198;2023-05-10T06:31:09;4.40;;;2.30;;
9248;SDS011;4660;41.768;26.198;2023-05-10T06:33:37;3.97;;;2.23;;
9248;SDS011;4660;41.768;26.198;2023-05-10T06:38:59;3.07;;;2.13;;
9248;SDS011;4660;41.768;26.198;2023-05-10T06:44:19;4.13;;;2.33;;
9248;SDS011;4660;41.768;26.198;2023-05-10T06:47:16;3.87;;;2.30;;
9248;SDS011;4660;41.768;26.198;2023-05-10T06:49:45;6.17;;;3.03;;
9248;SDS011;4660;41.768;26.198;2023-05-10T06:52:18;4.83;;;2.53;;
9248;SDS011;4660;41.768;26.198;2023-05-10T06:54:51;2.63;;;1.80;;
9248;SDS011;4660;41.768;26.198;2023-05-10T06:57:18;3.30;;;2.50;;
9248;SDS011;4660;41.768;26.198;2023-05-10T06:59:45;2.50;;;2.10;;
9248;SDS011;4660;41.768;26.198;2023-05-10T07:02:14;3.47;;;2.30;;
9248;SDS011;4660;41.768;26.198;2023-05-10T07:04:44;5.40;;;3.10;;
9248;SDS011;4660;41.768;26.198;2023-05-10T07:07:18;5.27;;;2.60;;
9248;SDS011;4660;41.768;26.198;2023-05-10T07:09:56;6.50;;;2.63;;
9248;SDS011;4660;41.768;26.198;2023-05-10T07:12:23;3.20;;;2.60;;
9248;SDS011;4660;41.768;26.198;2023-05-10T07:14:51;4.30;;;2.80;;
9248;SDS011;4660;41.768;26.198;2023-05-10T07:20:03;2.33;;;2.07;;
9248;SDS011;4660;41.768;26.198;2023-05-10T07:22:32;4.07;;;3.03;;
9248;SDS011;4660;41.768;26.198;2023-05-10T07:25:35;7.13;;;2.97;;
9248;SDS011;4660;41.768;26.198;2023-05-10T07:28:13;5.00;;;2.20;;
9248;SDS011;4660;41.768;26.198;2023-05-10T07:30:41;5.43;;;2.53;;
9248;SDS011;4660;41.768;26.198;2023-05-10T07:33:08;3.53;;;2.13;;
9248;SDS011;4660;41.768;26.198;2023-05-10T07:35:38;4.77;;;2.90;;
9248;SDS011;4660;41.768;26.198;2023-05-10T07:40:43;5.43;;;2.93;;
9248;SDS011;4660;41.768;26.198;2023-05-10T07:43:14;3.07;;;2.73;;
9248;SDS011;4660;41.768;26.198;2023-05-10T07:45:40;3.37;;;2.43;;
9248;SDS011;4660;41.768;26.198;2023-05-10T07:48:06;5.13;;;2.20;;
9248;SDS011;4660;41.768;26.198;2023-05-10T07:50:33;3.13;;;2.43;;
9248;SDS011;4660;41.768;26.198;2023-05-10T07:53:07;3.50;;;2.57;;
9248;SDS011;4660;41.768;26.198;2023-05-10T07:55:32;3.20;;;2.80;;
9248;SDS011;4660;41.768;26.198;2023-05-10T07:58:01;4.67;;;3.07;;
9248;SDS011;4660;41.768;26.198;2023-05-10T08:00:26;2.60;;;2.40;;
9248;SDS011;4660;41.768;26.198;2023-05-10T08:02:55;2.03;;;1.60;;
9248;SDS011;4660;41.768;26.198;2023-05-10T08:05:21;4.70;;;2.23;;
9248;SDS011;4660;41.768;26.198;2023-05-10T08:07:49;6.07;;;3.10;;
9248;SDS011;4660;41.768;26.198;2023-05-10T08:10:24;9.67;;;2.43;;
9248;SDS011;4660;41.768;26.198;2023-05-10T08:12:51;3.10;;;2.70;;
9248;SDS011;4660;41.768;26.198;2023-05-10T08:15:18;3.33;;;2.83;;
9248;SDS011;4660;41.768;26.198;2023-05-10T08:17:44;3.40;;;2.47;;
9248;SDS011;4660;41.768;26.198;2023-05-10T08:20:43;3.03;;;2.40;;
9248;SDS011;4660;41.768;26.198;2023-05-10T08:23:31;4.37;;;2.73;;
9248;SDS011;4660;41.768;26.198;2023-05-10T08:26:03;5.20;;;4.40;;
9248;SDS011;4660;41.768;26.198;2023-05-10T08:28:32;3.70;;;2.30;;
9248;SDS011;4660;41.768;26.198;2023-05-10T08:31:09;4.70;;;3.40;;
9248;SDS011;4660;41.768;26.198;2023-05-10T08:41:22;3.53;;;2.60;;
9248;SDS011;4660;41.768;26.198;2023-05-10T08:43:51;4.97;;;2.40;;
9248;SDS011;4660;41.768;26.198;2023-05-10T08:46:24;5.10;;;2.27;;
9248;SDS011;4660;41.768;26.198;2023-05-10T08:49:13;7.60;;;2.20;;
9248;SDS011;4660;41.768;26.198;2023-05-10T08:52:13;4.07;;;2.30;;
9248;SDS011;4660;41.768;26.198;2023-05-10T08:55:05;3.60;;;2.73;;
9248;SDS011;4660;41.768;26.198;2023-05-10T09:00:08;4.03;;;2.40;;
9248;SDS011;4660;41.768;26.198;2023-05-10T09:05:18;2.33;;;2.10;;
9248;SDS011;4660;41.768;26.198;2023-05-10T09:13:58;2.90;;;2.10;;
9248;SDS011;4660;41.768;26.198;2023-05-10T09:16:32;3.23;;;2.10;;
9248;SDS011;4660;41.768;26.198;2023-05-10T09:24:11;2.20;;;2.00;;
9248;SDS011;4660;41.768;26.198;2023-05-10T09:27:01;4.30;;;2.30;;
9248;SDS011;4660;41.768;26.198;2023-05-10T09:30:03;1.97;;;1.77;;
9248;SDS011;4660;41.768;26.198;2023-05-10T09:46:36;4.07;;;2.33;;
9248;SDS011;4660;41.768;26.198;2023-05-10T09:52:46;2.73;;;1.80;;
9248;SDS011;4660;41.768;26.198;2023-05-10T09:58:23;3.57;;;1.90;;
9248;SDS011;4660;41.768;26.198;2023-05-10T10:00:54;3.10;;;1.80;;
9248;SDS011;4660;41.768;26.198;2023-05-10T10:03:21;3.77;;;2.23;;
9248;SDS011;4660;41.768;26.198;2023-05-10T10:06:01;5.67;;;2.00;;
9248;SDS011;4660;41.768;26.198;2023-05-10T10:11:47;4.97;;;2.00;;
9248;SDS011;4660;41.768;26.198;2023-05-10T10:14:52;2.73;;;1.90;;
9248;SDS011;4660;41.768;26.198;2023-05-10T10:17:37;3.20;;;1.70;;
9248;SDS011;4660;41.768;26.198;2023-05-10T10:20:04;8.33;;;2.37;;
9248;SDS011;4660;41.768;26.198;2023-05-10T10:25:31;2.33;;;1.70;;
9248;SDS011;4660;41.768;26.198;2023-05-10T10:28:15;4.70;;;2.07;;
9248;SDS011;4660;41.768;26.198;2023-05-10T10:31:29;2.10;;;1.90;;
9248;SDS011;4660;41.768;26.198;2023-05-10T10:34:06;3.25;;;1.63;;
9248;SDS011;4660;41.768;26.198;2023-05-10T10:36:47;2.38;;;1.55;;
9248;SDS011;4660;41.768;26.198;2023-05-10T10:39:17;5.20;;;3.15;;
9248;SDS011;4660;41.768;26.198;2023-05-10T10:42:11;2.75;;;1.40;;
9248;SDS011;4660;41.768;26.198;2023-05-10T10:45:18;1.50;;;1.40;;
9248;SDS011;4660;41.768;26.198;2023-05-10T10:50:24;3.15;;;1.90;;
9248;SDS011;4660;41.768;26.198;2023-05-10T10:53:17;6.07;;;1.88;;
9248;SDS011;4660;41.768;26.198;2023-05-10T10:56:06;2.38;;;1.70;;
9248;SDS011;4660;41.768;26.198;2023-05-10T10:59:31;4.60;;;2.30;;
9248;SDS011;4660;41.768;26.198;2023-05-10T11:02:42;2.40;;;1.70;;
9248;SDS011;4660;41.768;26.198;2023-05-10T11:08:18;2.70;;;2.22;;
9248;SDS011;4660;41.768;26.198;2023-05-10T11:13:37;2.40;;;1.95;;
9248;SDS011;4660;41.768;26.198;2023-05-10T11:16:17;1.77;;;1.60;;
9248;SDS011;4660;41.768;26.198;2023-05-10T11:21:33;1.77;;;1.23;;
9248;SDS011;4660;41.768;26.198;2023-05-10T11:24:14;1.48;;;1.30;;
9248;SDS011;4660;41.768;26.198;2023-05-10T11:26:51;2.38;;;1.77;;
9248;SDS011;4660;41.768;26.198;2023-05-10T11:29:39;4.40;;;1.60;;
9248;SDS011;4660;41.768;26.198;2023-05-10T11:32:08;2.35;;;1.50;;
9248;SDS011;4660;41.768;26.198;2023-05-10T11:34:35;4.15;;;2.13;;
9248;SDS011;4660;41.768;26.198;2023-05-10T11:37:12;8.82;;;2.33;;
9248;SDS011;4660;41.768;26.198;2023-05-10T11:39:59;2.92;;;1.60;;
9248;SDS011;4660;41.768;26.198;2023-05-10T11:42:34;2.58;;;1.50;;
9248;SDS011;4660;41.768;26.198;2023-05-10T11:45:41;1.83;;;1.63;;
9248;SDS011;4660;41.768;26.198;2023-05-10T11:48:08;2.75;;;1.50;;
9248;SDS011;4660;41.768;26.198;2023-05-10T11:51:23;3.92;;;1.52;;
9248;SDS011;4660;41.768;26.198;2023-05-10T11:56:29;2.47;;;1.70;;
9248;SDS011;4660;41.768;26.198;2023-05-10T12:01:47;4.18;;;1.50;;
9248;SDS011;4660;41.768;26.198;2023-05-10T12:05:26;1.60;;;1.48;;
9248;SDS011;4660;41.768;26.198;2023-05-10T12:08:44;2.33;;;1.60;;
9248;SDS011;4660;41.768;26.198;2023-05-10T12:11:13;1.48;;;1.38;;
9248;SDS011;4660;41.768;26.198;2023-05-10T12:13:43;1.42;;;1.33;;
9248;SDS011;4660;41.768;26.198;2023-05-10T12:19:07;5.25;;;1.70;;
9248;SDS011;4660;41.768;26.198;2023-05-10T12:21:54;3.92;;;1.92;;
9248;SDS011;4660;41.768;26.198;2023-05-10T12:24:46;1.88;;;1.50;;
9248;SDS011;4660;41.768;26.198;2023-05-10T12:27:20;1.63;;;1.52;;
9248;SDS011;4660;41.768;26.198;2023-05-10T12:30:23;2.95;;;1.85;;
9248;SDS011;4660;41.768;26.198;2023-05-10T12:35:54;3.03;;;1.60;;
9248;SDS011;4660;41.768;26.198;2023-05-10T12:38:35;2.30;;;1.50;;
9248;SDS011;4660;41.768;26.198;2023-05-10T12:41:13;1.70;;;1.40;;
9248;SDS011;4660;41.768;26.198;2023-05-10T12:43:53;1.70;;;1.35;;
9248;SDS011;4660;41.768;26.198;2023-05-10T12:46:21;3.63;;;1.42;;
9248;SDS011;4660;41.768;26.198;2023-05-10T12:49:00;2.75;;;2.53;;
9248;SDS011;4660;41.768;26.198;2023-05-10T12:51:33;5.07;;;1.50;;
9248;SDS011;4660;41.768;26.198;2023-05-10T12:54:07;2.75;;;1.83;;
9248;SDS011;4660;41.768;26.198;2023-05-10T12:56:44;2.25;;;1.60;;
9248;SDS011;4660;41.768;26.198;2023-05-10T12:59:40;2.00;;;1.58;;
9248;SDS011;4660;41.768;26.198;2023-05-10T13:04:56;1.65;;;1.55;;
9248;SDS011;4660;41.768;26.198;2023-05-10T13:07:35;3.53;;;2.00;;
9248;SDS011;4660;41.768;26.198;2023-05-10T13:13:34;1.48;;;1.35;;
9248;SDS011;4660;41.768;26.198;2023-05-10T13:19:49;2.88;;;2.03;;
9248;SDS011;4660;41.768;26.198;2023-05-10T13:23:09;2.63;;;1.65;;
9248;SDS011;4660;41.768;26.198;2023-05-10T13:29:04;3.65;;;1.30;;
9248;SDS011;4660;41.768;26.198;2023-05-10T13:31:35;2.15;;;1.40;;
9248;SDS011;4660;41.768;26.198;2023-05-10T13:34:26;4.85;;;1.85;;
9248;SDS011;4660;41.768;26.198;2023-05-10T13:37:15;2.90;;;1.90;;
9248;SDS011;4660;41.768;26.198;2023-05-10T13:40:07;3.60;;;1.88;;
9248;SDS011;4660;41.768;26.198;2023-05-10T13:43:08;2.42;;;1.70;;
9248;SDS011;4660;41.768;26.198;2023-05-10T13:46:03;5.07;;;1.60;;
9248;SDS011;4660;41.768;26.198;2023-05-10T13:48:35;3.05;;;1.70;;
9248;SDS011;4660;41.768;26.198;2023-05-10T13:51:04;4.47;;;2.08;;
9248;SDS011;4660;41.768;26.198;2023-05-10T13:53:36;1.88;;;1.35;;
9248;SDS011;4660;41.768;26.198;2023-05-10T13:59:43;3.17;;;1.83;;
9248;SDS011;4660;41.768;26.198;2023-05-10T14:02:16;4.28;;;1.50;;
9248;SDS011;4660;41.768;26.198;2023-05-10T14:05:14;2.45;;;1.70;;
9248;SDS011;4660;41.768;26.198;2023-05-10T14:09:01;2.88;;;1.45;;
9248;SDS011;4660;41.768;26.198;2023-05-10T14:11:37;2.92;;;1.40;;
9248;SDS011;4660;41.768;26.198;2023-05-10T14:14:36;1.75;;;1.33;;
9248;SDS011;4660;41.768;26.198;2023-05-10T14:20:33;1.70;;;1.30;;
9248;SDS011;4660;41.768;26.198;2023-05-10T14:23:24;1.38;;;1.27;;
9248;SDS011;4660;41.768;26.198;2023-05-10T14:26:34;1.42;;;1.33;;
9248;SDS011;4660;41.768;26.198;2023-05-10T14:29:00;1.83;;;1.25;;
9248;SDS011;4660;41.768;26.198;2023-05-10T14:31:27;2.97;;;1.75;;
9248;SDS011;4660;41.768;26.198;2023-05-10T14:33:55;2.13;;;1.83;;
9248;SDS011;4660;41.768;26.198;2023-05-10T14:36:22;2.05;;;1.50;;
9248;SDS011;4660;41.768;26.198;2023-05-10T14:38:48;6.75;;;2.42;;
9248;SDS011;4660;41.768;26.198;2023-05-10T14:41:15;4.43;;;1.58;;
9248;SDS011;4660;41.768;26.198;2023-05-10T14:43:44;2.47;;;1.90;;
9248;SDS011;4660;41.768;26.198;2023-05-10T14:46:10;3.08;;;1.85;;
9248;SDS011;4660;41.768;26.198;2023-05-10T14:48:36;2.88;;;1.50;;
9248;SDS011;4660;41.768;26.198;2023-05-10T14:51:04;2.40;;;1.90;;
9248;SDS011;4660;41.768;26.198;2023-05-10T14:53:39;4.05;;;2.35;;
9248;SDS011;4660;41.768;26.198;2023-05-10T14:56:05;1.63;;;1.52;;
9248;SDS011;4660;41.768;26.198;2023-05-10T14:58:33;1.90;;;1.58;;
9248;SDS011;4660;41.768;26.198;2023-05-10T15:00:59;4.00;;;2.15;;
9248;SDS011;4660;41.768;26.198;2023-05-10T15:03:28;2.30;;;2.10;;
9248;SDS011;4660;41.768;26.198;2023-05-10T15:05:56;2.65;;;2.08;;
9248;SDS011;4660;41.768;26.198;2023-05-10T15:08:23;4.68;;;1.90;;
9248;SDS011;4660;41.768;26.198;2023-05-10T15:10:52;2.50;;;2.28;;
9248;SDS011;4660;41.768;26.198;2023-05-10T15:13:17;2.88;;;2.00;;
9248;SDS011;4660;41.768;26.198;2023-05-10T15:15:43;3.55;;;2.00;;
9248;SDS011;4660;41.768;26.198;2023-05-10T15:18:09;1.90;;;1.70;;
9248;SDS011;4660;41.768;26.198;2023-05-10T15:20:35;2.33;;;2.13;;
9248;SDS011;4660;41.768;26.198;2023-05-10T15:23:01;5.25;;;2.03;;
9248;SDS011;4660;41.768;26.198;2023-05-10T15:25:27;2.45;;;1.83;;
9248;SDS011;4660;41.768;26.198;2023-05-10T15:27:54;2.75;;;2.25;;
9248;SDS011;4660;41.768;26.198;2023-05-10T15:30:20;4.10;;;1.80;;
9248;SDS011;4660;41.768;26.198;2023-05-10T15:32:45;2.60;;;1.83;;
9248;SDS011;4660;41.768;26.198;2023-05-10T15:35:15;2.85;;;2.05;;
9248;SDS011;4660;41.768;26.198;2023-05-10T15:37:42;4.63;;;2.30;;
9248;SDS011;4660;41.768;26.198;2023-05-10T15:40:07;9.10;;;1.90;;
9248;SDS011;4660;41.768;26.198;2023-05-10T15:42:33;2.05;;;1.85;;
9248;SDS011;4660;41.768;26.198;2023-05-10T15:44:59;2.35;;;1.80;;
9248;SDS011;4660;41.768;26.198;2023-05-10T15:47:27;2.40;;;2.03;;
9248;SDS011;4660;41.768;26.198;2023-05-10T15:49:55;3.00;;;1.92;;
9248;SDS011;4660;41.768;26.198;2023-05-10T15:52:21;2.35;;;2.15;;
9248;SDS011;4660;41.768;26.198;2023-05-10T15:54:48;2.85;;;1.77;;
9248;SDS011;4660;41.768;26.198;2023-05-10T15:57:18;3.50;;;2.08;;
9248;SDS011;4660;41.768;26.198;2023-05-10T15:59:47;6.03;;;2.42;;
9248;SDS011;4660;41.768;26.198;2023-05-10T16:02:13;3.92;;;3.33;;
9248;SDS011;4660;41.768;26.198;2023-05-10T16:04:40;3.47;;;2.42;;
9248;SDS011;4660;41.768;26.198;2023-05-10T16:07:05;3.17;;;2.38;;
9248;SDS011;4660;41.768;26.198;2023-05-10T16:09:31;3.13;;;2.00;;
9248;SDS011;4660;41.768;26.198;2023-05-10T16:11:57;4.57;;;2.47;;
9248;SDS011;4660;41.768;26.198;2023-05-10T16:14:23;5.47;;;2.45;;
9248;SDS011;4660;41.768;26.198;2023-05-10T16:16:51;2.92;;;1.85;;
9248;SDS011;4660;41.768;26.198;2023-05-10T16:19:22;1.85;;;1.50;;
9248;SDS011;4660;41.768;26.198;2023-05-10T16:21:50;3.22;;;1.98;;
9248;SDS011;4660;41.768;26.198;2023-05-10T16:24:26;3.25;;;2.30;;
9248;SDS011;4660;41.768;26.198;2023-05-10T16:26:53;3.35;;;1.90;;
9248;SDS011;4660;41.768;26.198;2023-05-10T16:29:19;3.35;;;2.60;;
9248;SDS011;4660;41.768;26.198;2023-05-10T16:31:49;5.00;;;2.15;;
9248;SDS011;4660;41.768;26.198;2023-05-10T16:34:14;4.15;;;2.20;;
9248;SDS011;4660;41.768;26.198;2023-05-10T16:36:41;4.07;;;2.00;;
9248;SDS011;4660;41.768;26.198;2023-05-10T16:39:11;3.83;;;2.00;;
9248;SDS011;4660;41.768;26.198;2023-05-10T16:41:36;3.38;;;1.95;;
9248;SDS011;4660;41.768;26.198;2023-05-10T16:44:04;2.15;;;1.95;;
9248;SDS011;4660;41.768;26.198;2023-05-10T16:46:30;5.45;;;2.72;;
9248;SDS011;4660;41.768;26.198;2023-05-10T16:49:14;2.30;;;2.10;;
9248;SDS011;4660;41.768;26.198;2023-05-10T16:51:43;5.90;;;2.90;;
9248;SDS011;4660;41.768;26.198;2023-05-10T16:54:09;3.30;;;3.00;;
9248;SDS011;4660;41.768;26.198;2023-05-10T16:56:35;4.15;;;2.38;;
9248;SDS011;4660;41.768;26.198;2023-05-10T16:59:02;4.45;;;3.15;;
9248;SDS011;4660;41.768;26.198;2023-05-10T17:01:32;4.38;;;3.10;;
9248;SDS011;4660;41.768;26.198;2023-05-10T17:03:57;5.32;;;3.15;;
9248;SDS011;4660;41.768;26.198;2023-05-10T17:06:23;5.60;;;3.20;;
9248;SDS011;4660;41.768;26.198;2023-05-10T17:08:49;3.37;;;2.70;;
9248;SDS011;4660;41.768;26.198;2023-05-10T17:11:17;3.23;;;2.90;;
9248;SDS011;4660;41.768;26.198;2023-05-10T17:13:44;6.57;;;4.03;;
9248;SDS011;4660;41.768;26.198;2023-05-10T17:16:09;6.33;;;4.10;;
9248;SDS011;4660;41.768;26.198;2023-05-10T17:18:36;9.30;;;4.50;;
9248;SDS011;4660;41.768;26.198;2023-05-10T17:21:02;6.47;;;4.20;;
9248;SDS011;4660;41.768;26.198;2023-05-10T17:23:27;7.60;;;3.87;;
9248;SDS011;4660;41.768;26.198;2023-05-10T17:25:54;6.57;;;3.80;;
9248;SDS011;4660;41.768;26.198;2023-05-10T17:28:20;4.73;;;3.40;;
9248;SDS011;4660;41.768;26.198;2023-05-10T17:30:45;8.50;;;3.57;;
9248;SDS011;4660;41.768;26.198;2023-05-10T17:33:19;5.40;;;3.73;;
9248;SDS011;4660;41.768;26.198;2023-05-10T17:35:48;4.50;;;3.67;;
9248;SDS011;4660;41.768;26.198;2023-05-10T17:38:14;10.20;;;5.40;;
9248;SDS011;4660;41.768;26.198;2023-05-10T17:40:41;8.17;;;4.27;;
9248;SDS011;4660;41.768;26.198;2023-05-10T17:43:07;3.00;;;2.70;;
9248;SDS011;4660;41.768;26.198;2023-05-10T17:45:33;9.33;;;2.70;;
9248;SDS011;4660;41.768;26.198;2023-05-10T17:47:59;2.87;;;2.57;;
9248;SDS011;4660;41.768;26.198;2023-05-10T17:50:26;3.53;;;2.93;;
9248;SDS011;4660;41.768;26.198;2023-05-10T17:52:51;6.07;;;3.50;;
9248;SDS011;4660;41.768;26.198;2023-05-10T17:55:17;3.37;;;2.90;;
9248;SDS011;4660;41.768;26.198;2023-05-10T17:57:42;4.23;;;2.90;;
9248;SDS011;4660;41.768;26.198;2023-05-10T18:00:10;5.87;;;2.87;;
9248;SDS011;4660;41.768;26.198;2023-05-10T18:02:36;4.40;;;2.83;;
9248;SDS011;4660;41.768;26.198;2023-05-10T18:05:04;4.67;;;3.07;;